Time;durP1;ratioP1;P1;durP2;ratioP2;P2;SDS_P1;SDS_P2;PMS_P1;PMS_P2;Temp;Humidity;BMP_temperature;BMP_pressure;BME280_temperature;BME280_humidity;BME280_pressure;Samples;Min_cycle;Max_cycle;Signal;HPM_P1;HPM_P2
2022/06/28 00:00:59;;;;;;;15.85;11.43;;;14.50;99.90;;;;;;5013441;28;20034;-82
2022/06/28 00:03:25;;;;;;;14.90;11.10;;;14.50;99.90;;;;;;5026437;28;20047;-81
2022/06/28 00:05:50;;;;;;;12.15;9.88;;;14.50;99.90;;;;;;5022983;28;20427;-82
2022/06/28 00:08:16;;;;;;;15.00;10.90;;;14.50;99.90;;;;;;5009925;28;20045;-83
2022/06/28 00:10:41;;;;;;;17.98;16.15;;;14.40;99.90;;;;;;5007358;28;20045;-82
2022/06/28 00:13:08;;;;;;;15.52;14.02;;;14.40;99.90;;;;;;5007236;28;20052;-82
2022/06/28 00:18:17;;;;;;;17.20;15.55;;;14.40;99.90;;;;;;5021907;28;20187;-83
2022/06/28 00:20:43;;;;;;;15.60;14.00;;;14.40;99.90;;;;;;4997146;28;20129;-82
2022/06/28 00:23:09;;;;;;;13.25;10.27;;;14.50;99.90;;;;;;5011549;28;20042;-83
2022/06/28 00:25:34;;;;;;;15.57;14.07;;;14.40;99.90;;;;;;5012878;28;20041;-82
2022/06/28 00:28:00;;;;;;;12.32;9.90;;;14.40;99.90;;;;;;5012889;28;20050;-83
2022/06/28 00:30:26;;;;;;;12.80;9.35;;;14.40;99.90;;;;;;5010364;28;20041;-83
2022/06/28 00:32:51;;;;;;;17.08;15.23;;;14.30;99.90;;;;;;5012696;28;20037;-82
2022/06/28 00:35:17;;;;;;;15.63;13.95;;;14.40;99.90;;;;;;5013421;28;20072;-83
2022/06/28 00:37:44;;;;;;;15.00;10.27;;;14.40;99.90;;;;;;4994839;28;20037;-82
2022/06/28 00:40:10;;;;;;;15.63;14.13;;;14.40;99.90;;;;;;4996873;28;20038;-82
2022/06/28 00:42:37;;;;;;;13.45;10.75;;;14.40;99.90;;;;;;4996547;28;20045;-82
2022/06/28 00:45:04;;;;;;;15.63;12.77;;;14.30;99.90;;;;;;5028957;28;20391;-83
2022/06/28 00:47:30;;;;;;;15.15;13.55;;;14.30;99.90;;;;;;5012139;28;20030;-82
2022/06/28 00:49:58;;;;;;;12.10;9.23;;;14.30;99.90;;;;;;5012743;28;20049;-83
2022/06/28 00:52:23;;;;;;;14.43;12.57;;;14.30;99.90;;;;;;5031266;28;20091;-83
2022/06/28 00:54:49;;;;;;;15.55;13.38;;;14.30;99.90;;;;;;5017067;28;20045;-82
2022/06/28 00:57:14;;;;;;;12.60;9.23;;;14.30;99.90;;;;;;4999543;28;20077;-83
2022/06/28 00:59:40;;;;;;;14.80;13.30;;;14.30;99.90;;;;;;5015977;28;20073;-83
2022/06/28 01:02:06;;;;;;;13.05;9.32;;;14.30;99.90;;;;;;5017211;28;20491;-83
2022/06/28 01:04:31;;;;;;;14.07;9.48;;;14.20;99.90;;;;;;5016585;28;20136;-83
2022/06/28 01:06:57;;;;;;;15.93;14.25;;;14.20;99.90;;;;;;5033358;28;20048;-83
2022/06/28 01:09:23;;;;;;;14.57;10.65;;;14.20;99.90;;;;;;5016505;28;20037;-83
2022/06/28 01:11:48;;;;;;;15.60;14.20;;;14.20;99.90;;;;;;5016689;28;20053;-83
2022/06/28 01:14:14;;;;;;;17.05;15.35;;;14.20;99.90;;;;;;5034366;28;20037;-83
2022/06/28 01:16:41;;;;;;;13.63;10.52;;;14.30;99.90;;;;;;4999245;28;20037;-83
2022/06/28 01:19:07;;;;;;;16.40;14.68;;;14.20;99.90;;;;;;5031509;28;20457;-83
2022/06/28 01:21:34;;;;;;;12.40;9.43;;;14.20;99.90;;;;;;5016799;28;20069;-83
2022/06/28 01:24:00;;;;;;;12.88;9.55;;;14.20;99.90;;;;;;5016276;28;20410;-83
2022/06/28 01:26:26;;;;;;;16.98;10.95;;;14.20;99.90;;;;;;5015709;28;20033;-83
2022/06/28 01:28:53;;;;;;;14.57;13.02;;;14.20;99.90;;;;;;5032227;28;20145;-83
2022/06/28 01:31:20;;;;;;;13.77;10.20;;;14.20;99.90;;;;;;5031864;28;20041;-82
2022/06/28 01:33:46;;;;;;;16.40;13.00;;;14.20;99.90;;;;;;5033428;28;20041;-82
2022/06/28 01:36:13;;;;;;;14.25;10.18;;;14.20;99.90;;;;;;5035016;28;20037;-83
2022/06/28 01:38:40;;;;;;;14.25;12.85;;;14.10;99.90;;;;;;5020705;28;20046;-83
2022/06/28 01:41:07;;;;;;;13.75;10.13;;;14.20;99.90;;;;;;5015727;28;20042;-83
2022/06/28 01:43:32;;;;;;;16.33;14.63;;;14.10;99.90;;;;;;5015717;28;20057;-83
2022/06/28 01:45:59;;;;;;;15.40;13.23;;;14.10;99.90;;;;;;5015804;28;20127;-83
2022/06/28 01:48:25;;;;;;;17.15;15.40;;;14.20;99.90;;;;;;5015475;28;20037;-83
2022/06/28 01:50:52;;;;;;;14.00;9.48;;;14.20;99.90;;;;;;4998890;28;20054;-83
2022/06/28 01:53:19;;;;;;;13.15;9.68;;;14.10;99.90;;;;;;5015893;28;20069;-84
2022/06/28 01:55:44;;;;;;;14.60;11.55;;;14.10;99.90;;;;;;4999360;28;20033;-84
2022/06/28 01:58:10;;;;;;;17.52;15.73;;;14.00;99.90;;;;;;5030942;28;20609;-84
2022/06/28 02:00:36;;;;;;;14.95;11.05;;;14.00;99.90;;;;;;5014875;28;20041;-84
2022/06/28 02:03:03;;;;;;;18.65;16.85;;;14.00;99.90;;;;;;5015145;28;20077;-84
2022/06/28 02:05:29;;;;;;;18.88;17.05;;;14.00;99.90;;;;;;5032094;28;20044;-84
2022/06/28 02:07:55;;;;;;;13.52;10.02;;;14.10;99.90;;;;;;5030730;28;20079;-84
2022/06/28 02:10:21;;;;;;;17.20;15.40;;;14.00;99.90;;;;;;5015480;28;20069;-83
2022/06/28 02:12:47;;;;;;;16.17;11.07;;;14.00;99.90;;;;;;4999319;28;20522;-83
2022/06/28 02:15:13;;;;;;;14.98;11.40;;;14.00;99.90;;;;;;4979616;28;20052;-84
2022/06/28 02:17:40;;;;;;;17.60;12.70;;;13.90;99.90;;;;;;4999938;28;20071;-84
2022/06/28 02:20:06;;;;;;;19.65;17.80;;;13.90;99.90;;;;;;4998225;28;20072;-83
2022/06/28 02:22:32;;;;;;;21.08;18.83;;;13.90;99.90;;;;;;5015574;28;20463;-83
2022/06/28 02:24:58;;;;;;;20.30;13.50;;;14.00;99.90;;;;;;4998809;28;20739;-83
2022/06/28 02:27:23;;;;;;;20.67;18.58;;;13.90;99.90;;;;;;5030953;28;20118;-83
2022/06/28 02:29:49;;;;;;;20.08;13.88;;;13.90;99.90;;;;;;4998319;28;20036;-83
2022/06/28 02:32:14;;;;;;;20.42;18.35;;;13.90;99.90;;;;;;5015084;28;20148;-84
2022/06/28 02:40:28;;;;;;;22.27;20.13;;;13.80;99.90;;;;;;4916499;29;20043;-83
2022/06/28 02:42:56;;;;;;;20.98;18.98;;;13.80;99.90;;;;;;4917186;29;20051;-83
2022/06/28 02:45:24;;;;;;;22.08;20.10;;;13.90;99.90;;;;;;4963737;28;20061;-83
2022/06/28 02:47:51;;;;;;;19.67;13.52;;;13.90;99.90;;;;;;5026858;28;20049;-83
2022/06/28 02:50:17;;;;;;;22.85;20.73;;;13.80;99.90;;;;;;5027694;28;20068;-83
2022/06/28 02:52:43;;;;;;;19.40;15.02;;;13.80;99.90;;;;;;4997821;28;20041;-83
2022/06/28 02:55:09;;;;;;;21.92;19.73;;;13.80;99.90;;;;;;4998581;28;20041;-83
2022/06/28 02:57:36;;;;;;;17.65;13.68;;;13.80;99.90;;;;;;5014201;28;20040;-83
2022/06/28 03:00:07;;;;;;;19.13;14.38;;;13.80;99.90;;;;;;5013334;28;20124;-84
2022/06/28 03:02:35;;;;;;;21.58;19.58;;;13.80;99.90;;;;;;4998611;28;20053;-83
2022/06/28 03:05:03;;;;;;;24.48;22.08;;;13.80;99.90;;;;;;5031203;28;20140;-83
2022/06/28 03:07:28;;;;;;;18.20;13.70;;;13.80;99.90;;;;;;4997296;28;20580;-83
2022/06/28 03:09:54;;;;;;;22.40;20.30;;;13.80;99.90;;;;;;5013795;28;20033;-83
2022/06/28 03:12:19;;;;;;;19.75;14.07;;;13.80;99.90;;;;;;4997830;28;20038;-83
2022/06/28 03:14:45;;;;;;;22.05;20.02;;;13.80;99.90;;;;;;5029870;28;20037;-83
2022/06/28 03:17:10;;;;;;;21.77;15.68;;;13.80;99.90;;;;;;5013995;28;20486;-83
2022/06/28 03:19:36;;;;;;;17.38;13.48;;;13.80;99.90;;;;;;5012836;28;20048;-82
2022/06/28 03:22:01;;;;;;;20.52;18.52;;;13.70;99.90;;;;;;5013943;28;20418;-83
2022/06/28 03:24:27;;;;;;;21.75;19.77;;;13.80;99.90;;;;;;5014283;28;20119;-83
2022/06/28 03:26:53;;;;;;;17.20;14.35;;;13.80;99.90;;;;;;5013781;28;20037;-83
2022/06/28 03:29:18;;;;;;;16.95;13.13;;;13.80;99.90;;;;;;5013001;28;20048;-84
2022/06/28 03:31:44;;;;;;;22.98;20.88;;;13.70;99.90;;;;;;5013594;28;20498;-84
2022/06/28 03:34:09;;;;;;;18.52;14.50;;;13.70;99.90;;;;;;5014370;28;20139;-84
2022/06/28 03:36:35;;;;;;;20.70;18.60;;;13.70;99.90;;;;;;4997720;28;20081;-84
2022/06/28 03:39:00;;;;;;;19.63;14.57;;;13.70;99.90;;;;;;5012242;28;20581;-84
2022/06/28 03:41:26;;;;;;;19.38;13.93;;;13.70;99.90;;;;;;5013446;28;20038;-84
2022/06/28 03:43:53;;;;;;;24.20;21.90;;;13.60;99.90;;;;;;5012499;28;20030;-84
2022/06/28 03:46:20;;;;;;;20.85;16.33;;;13.70;99.90;;;;;;5013715;28;20049;-84
2022/06/28 03:48:46;;;;;;;23.45;21.10;;;13.70;99.90;;;;;;4996615;28;20045;-84
2022/06/28 03:51:13;;;;;;;23.90;21.77;;;13.70;99.90;;;;;;5029225;28;20430;-84
2022/06/28 03:53:38;;;;;;;27.75;25.08;;;13.80;99.90;;;;;;4998076;28;20037;-83
2022/06/28 03:56:05;;;;;;;20.13;14.82;;;13.80;99.90;;;;;;5013211;28;20112;-83
2022/06/28 03:58:31;;;;;;;18.90;14.02;;;13.70;99.90;;;;;;5012756;28;20859;-83
2022/06/28 04:00:57;;;;;;;18.85;15.40;;;13.70;99.90;;;;;;5012906;28;20044;-84
2022/06/28 04:03:22;;;;;;;27.88;24.92;;;13.70;99.90;;;;;;4996802;28;20049;-83
2022/06/28 04:05:48;;;;;;;20.92;15.15;;;13.70;99.90;;;;;;4997501;28;20099;-83
2022/06/28 04:08:14;;;;;;;20.90;16.48;;;13.70;99.90;;;;;;5030490;28;20108;-83
2022/06/28 04:10:39;;;;;;;27.58;24.63;;;13.70;99.90;;;;;;5012700;28;20044;-84
2022/06/28 04:13:05;;;;;;;19.88;15.98;;;13.70;99.90;;;;;;4996928;28;20037;-83
2022/06/28 04:15:31;;;;;;;20.00;16.40;;;13.70;99.90;;;;;;4996849;28;20476;-83
2022/06/28 04:17:57;;;;;;;23.45;19.05;;;13.70;99.90;;;;;;5029639;28;20038;-83
2022/06/28 04:20:23;;;;;;;29.38;26.45;;;13.70;99.90;;;;;;5012030;28;20091;-83
2022/06/28 04:22:48;;;;;;;20.50;17.00;;;13.70;99.90;;;;;;5012310;28;20073;-83
2022/06/28 04:25:14;;;;;;;25.52;22.95;;;13.70;99.90;;;;;;4996897;28;20387;-84
2022/06/28 04:27:39;;;;;;;19.63;15.98;;;13.80;99.90;;;;;;4996386;28;20124;-83
2022/06/28 04:30:05;;;;;;;21.92;17.13;;;13.80;99.90;;;;;;5012392;28;20033;-83
2022/06/28 04:32:31;;;;;;;21.58;18.10;;;13.70;99.90;;;;;;5030841;28;20052;-83
2022/06/28 04:34:57;;;;;;;30.80;27.92;;;13.70;99.90;;;;;;4996601;28;20418;-83
2022/06/28 04:37:23;;;;;;;28.90;21.85;;;13.80;99.90;;;;;;5013099;28;20048;-83
2022/06/28 04:39:49;;;;;;;27.67;25.10;;;13.80;99.90;;;;;;5028064;28;20041;-83
2022/06/28 04:42:14;;;;;;;20.23;17.23;;;13.80;99.90;;;;;;4996679;28;20513;-83
2022/06/28 04:44:41;;;;;;;21.25;17.65;;;13.80;99.90;;;;;;4997161;28;20502;-83
2022/06/28 04:47:08;;;;;;;21.30;16.80;;;13.80;99.90;;;;;;5029222;28;20041;-83
2022/06/28 04:49:33;;;;;;;25.52;23.02;;;13.80;99.90;;;;;;4995662;28;20038;-83
2022/06/28 04:51:59;;;;;;;22.35;17.00;;;13.80;99.90;;;;;;5012359;28;20041;-82
2022/06/28 04:54:25;;;;;;;27.95;25.42;;;13.90;99.90;;;;;;5030073;28;20427;-84
2022/06/28 04:56:52;;;;;;;20.52;17.08;;;13.90;99.90;;;;;;5029146;28;20800;-83
2022/06/28 04:59:18;;;;;;;19.42;15.80;;;13.90;99.90;;;;;;4995565;28;20045;-83
2022/06/28 05:01:43;;;;;;;26.30;23.75;;;13.90;99.90;;;;;;4996459;28;20494;-83
2022/06/28 05:04:09;;;;;;;23.85;18.63;;;13.90;99.90;;;;;;5012607;28;20125;-83
2022/06/28 05:06:34;;;;;;;26.23;23.73;;;14.00;99.90;;;;;;5029774;28;20499;-83
2022/06/28 05:09:00;;;;;;;21.92;16.30;;;14.10;99.90;;;;;;5011946;28;20483;-84
2022/06/28 05:11:26;;;;;;;20.52;17.55;;;14.10;99.90;;;;;;5012244;28;20312;-83
2022/06/28 05:13:51;;;;;;;22.58;17.85;;;14.10;99.90;;;;;;5029792;28;20041;-84
2022/06/28 05:16:17;;;;;;;20.25;17.85;;;14.10;99.90;;;;;;4996247;28;20507;-84
2022/06/28 05:18:43;;;;;;;27.77;25.05;;;14.20;99.90;;;;;;5012252;28;20037;-83
2022/06/28 05:21:09;;;;;;;28.27;25.35;;;14.20;99.90;;;;;;4994820;28;20049;-84
2022/06/28 05:23:36;;;;;;;23.25;18.02;;;14.30;99.90;;;;;;4996491;28;20164;-84
2022/06/28 05:26:02;;;;;;;21.42;16.50;;;14.40;99.90;;;;;;4996671;28;20057;-84
2022/06/28 05:28:28;;;;;;;25.88;23.48;;;14.40;99.90;;;;;;5028254;28;20034;-83
2022/06/28 05:30:53;;;;;;;22.10;18.38;;;14.50;99.90;;;;;;5011999;28;20120;-83
2022/06/28 05:33:19;;;;;;;24.65;22.33;;;14.50;99.90;;;;;;5029857;28;20052;-83
2022/06/28 05:35:45;;;;;;;20.65;16.77;;;14.50;99.90;;;;;;5029250;28;20029;-84
2022/06/28 05:38:11;;;;;;;21.08;17.75;;;14.60;99.90;;;;;;4991171;28;20626;-82
2022/06/28 05:40:36;;;;;;;21.70;15.52;;;14.60;99.90;;;;;;5008761;28;20042;-83
2022/06/28 05:43:02;;;;;;;23.90;21.55;;;14.60;99.90;;;;;;5013700;28;20132;-83
2022/06/28 05:45:28;;;;;;;22.73;20.42;;;14.70;99.90;;;;;;4996316;28;20034;-83
2022/06/28 05:47:54;;;;;;;23.55;21.15;;;14.80;99.90;;;;;;5045019;28;20414;-83
2022/06/28 05:50:19;;;;;;;19.45;17.00;;;14.90;99.90;;;;;;5017487;28;20491;-84
2022/06/28 05:52:47;;;;;;;24.70;22.15;;;14.90;99.90;;;;;;4996837;28;20533;-84
2022/06/28 05:55:13;;;;;;;21.00;15.15;;;15.00;99.90;;;;;;5000476;28;20041;-84
2022/06/28 05:57:38;;;;;;;19.13;15.18;;;15.00;99.90;;;;;;5015255;28;20510;-84
2022/06/28 06:00:05;;;;;;;22.73;20.45;;;15.10;99.90;;;;;;5015033;28;20038;-84
2022/06/28 06:02:31;;;;;;;22.35;20.08;;;15.20;99.90;;;;;;5015381;28;20099;-84
2022/06/28 06:04:59;;;;;;;22.80;16.10;;;15.20;99.90;;;;;;5032241;28;20049;-84
2022/06/28 06:07:25;;;;;;;20.70;18.50;;;15.30;99.90;;;;;;5015849;28;20503;-84
2022/06/28 06:09:51;;;;;;;20.83;17.85;;;15.40;99.90;;;;;;5014931;28;20053;-84
2022/06/28 06:12:16;;;;;;;23.65;21.30;;;15.40;99.90;;;;;;4998113;28;20033;-84
2022/06/28 06:14:42;;;;;;;22.13;19.92;;;15.50;99.90;;;;;;5015342;28;20076;-84
2022/06/28 06:17:08;;;;;;;20.02;14.38;;;15.60;99.90;;;;;;4999153;28;20041;-84
2022/06/28 06:19:33;;;;;;;22.20;18.10;;;15.60;99.90;;;;;;5032353;28;20041;-84
2022/06/28 06:21:59;;;;;;;18.15;15.68;;;15.70;99.90;;;;;;5032846;28;20105;-84
2022/06/28 06:24:24;;;;;;;19.63;12.95;;;15.70;99.90;;;;;;5032311;28;20090;-84
2022/06/28 06:26:50;;;;;;;19.30;14.77;;;15.80;99.90;;;;;;4999219;28;20034;-84
2022/06/28 06:29:16;;;;;;;17.27;12.10;;;15.90;99.90;;;;;;5014422;28;20483;-84
2022/06/28 06:31:41;;;;;;;14.35;10.15;;;15.90;99.90;;;;;;5014679;28;20530;-85
2022/06/28 06:34:07;;;;;;;14.80;9.75;;;16.00;99.90;;;;;;4998724;28;20045;-84
2022/06/28 06:36:33;;;;;;;15.57;9.88;;;16.00;99.90;;;;;;5015004;28;20045;-84
2022/06/28 06:38:58;;;;;;;14.77;7.30;;;16.10;99.90;;;;;;5015041;28;20044;-85
2022/06/28 06:41:25;;;;;;;14.77;8.25;;;16.10;99.90;;;;;;5013466;28;20475;-84
2022/06/28 06:43:52;;;;;;;14.30;8.23;;;16.10;99.90;;;;;;5015294;28;20034;-85
2022/06/28 06:46:18;;;;;;;15.35;8.27;;;16.20;99.90;;;;;;5033142;28;20052;-84
2022/06/28 06:48:43;;;;;;;15.40;8.90;;;16.20;99.90;;;;;;5031373;28;20117;-84
2022/06/28 06:51:10;;;;;;;14.38;9.35;;;16.20;99.90;;;;;;5042441;28;20040;-84
2022/06/28 06:53:35;;;;;;;15.77;9.23;;;16.30;99.90;;;;;;5042094;28;20517;-84
2022/06/28 06:56:01;;;;;;;16.95;7.60;;;16.30;99.90;;;;;;5028370;28;20514;-84
2022/06/28 06:58:27;;;;;;;16.90;8.13;;;16.40;99.90;;;;;;5030184;28;20045;-85
2022/06/28 07:00:53;;;;;;;16.83;9.60;;;16.40;99.90;;;;;;5027823;28;20045;-84
2022/06/28 07:03:19;;;;;;;18.23;8.85;;;16.50;99.90;;;;;;4997489;28;20408;-84
2022/06/28 07:05:44;;;;;;;15.05;8.05;;;16.60;99.90;;;;;;4997005;28;20033;-84
2022/06/28 07:08:10;;;;;;;17.20;9.30;;;16.70;99.90;;;;;;4996188;28;20479;-85
2022/06/28 07:10:36;;;;;;;16.58;10.35;;;16.70;99.90;;;;;;4996676;28;20534;-85
2022/06/28 07:13:01;;;;;;;16.65;11.00;;;16.80;99.90;;;;;;5013006;28;20045;-84
2022/06/28 07:15:27;;;;;;;14.43;9.63;;;16.80;99.90;;;;;;5028972;28;20045;-84
2022/06/28 07:17:52;;;;;;;15.82;9.23;;;16.90;99.90;;;;;;4997314;28;20132;-84
2022/06/28 07:20:18;;;;;;;15.85;8.82;;;16.90;99.90;;;;;;5029598;28;20087;-84
2022/06/28 07:22:44;;;;;;;15.85;7.60;;;16.90;99.90;;;;;;5011389;28;20034;-84
2022/06/28 07:25:09;;;;;;;15.77;9.13;;;16.90;99.90;;;;;;4997055;28;20042;-83
2022/06/28 07:27:35;;;;;;;15.93;8.80;;;16.90;99.90;;;;;;5013660;28;20041;-83
2022/06/28 07:30:01;;;;;;;14.40;10.02;;;16.90;99.90;;;;;;5012514;28;20095;-84
2022/06/28 07:32:26;;;;;;;15.27;9.75;;;17.00;99.90;;;;;;4995785;28;20438;-84
2022/06/28 07:34:52;;;;;;;16.42;9.43;;;17.00;99.90;;;;;;4997311;28;20045;-84
2022/06/28 07:37:18;;;;;;;17.27;9.90;;;17.00;99.90;;;;;;4995839;28;20126;-84
2022/06/28 07:39:43;;;;;;;14.68;9.50;;;17.10;99.90;;;;;;4994867;28;20056;-84
2022/06/28 07:42:09;;;;;;;15.27;10.02;;;17.10;99.90;;;;;;5026445;28;20037;-84
2022/06/28 07:44:34;;;;;;;15.32;9.93;;;17.20;99.90;;;;;;5014093;28;20056;-83
2022/06/28 07:47:00;;;;;;;13.68;9.25;;;17.30;99.90;;;;;;4997052;28;20042;-83
2022/06/28 07:52:33;;;;;;;16.58;10.18;;;17.30;99.90;;;;;;4995697;28;20083;-83
2022/06/28 07:54:55;;;;;;;16.08;10.13;;;17.40;99.90;;;;;;5029687;28;20084;-84
2022/06/28 07:57:21;;;;;;;14.70;8.82;;;17.50;99.90;;;;;;5029909;28;20077;-84
2022/06/28 07:59:46;;;;;;;16.95;8.57;;;17.60;99.90;;;;;;5010288;28;20095;-84
2022/06/28 08:02:12;;;;;;;14.43;8.77;;;17.70;99.90;;;;;;5011548;28;20084;-85
2022/06/28 08:04:38;;;;;;;14.05;7.90;;;17.80;99.90;;;;;;5041710;28;20033;-84
2022/06/28 08:07:03;;;;;;;13.02;7.10;;;17.80;99.90;;;;;;5036880;28;20030;-84
2022/06/28 08:09:29;;;;;;;13.68;8.02;;;17.90;99.90;;;;;;5012282;28;20495;-84
2022/06/28 08:11:54;;;;;;;12.82;5.50;;;18.00;99.90;;;;;;5012080;28;20090;-84
2022/06/28 08:14:20;;;;;;;14.38;6.70;;;18.00;99.90;;;;;;5012711;28;20068;-84
2022/06/28 08:16:45;;;;;;;12.70;6.22;;;18.10;99.90;;;;;;5013296;28;20041;-84
2022/06/28 08:19:11;;;;;;;10.88;6.55;;;18.10;99.90;;;;;;5011910;28;20151;-84
2022/06/28 08:21:38;;;;;;;11.93;6.43;;;18.20;99.90;;;;;;5010931;28;20077;-84
2022/06/28 08:24:04;;;;;;;10.90;5.72;;;18.30;99.90;;;;;;4995976;28;20049;-84
2022/06/28 08:26:30;;;;;;;11.82;4.90;;;18.40;99.90;;;;;;5012463;28;20033;-84
2022/06/28 08:28:56;;;;;;;11.52;3.83;;;18.40;99.90;;;;;;5012946;28;20124;-84
2022/06/28 08:31:21;;;;;;;8.75;2.97;;;18.30;99.90;;;;;;5010807;28;20503;-84
2022/06/28 08:33:47;;;;;;;10.38;3.45;;;18.20;99.90;;;;;;5012622;28;20041;-84
2022/06/28 08:36:12;;;;;;;9.98;3.30;;;18.20;99.90;;;;;;5030808;28;20048;-84
2022/06/28 08:38:38;;;;;;;9.48;2.97;;;18.30;99.90;;;;;;5011886;28;20120;-84
2022/06/28 08:41:06;;;;;;;9.55;2.65;;;18.30;99.90;;;;;;4995565;28;20037;-84
2022/06/28 08:43:32;;;;;;;9.93;3.30;;;18.30;99.90;;;;;;4995172;28;20384;-84
2022/06/28 08:45:58;;;;;;;9.82;3.00;;;18.40;99.90;;;;;;5012178;28;20039;-84
2022/06/28 08:48:33;;;;;;;8.45;2.80;;;18.40;99.90;;;;;;5011364;28;20044;-84
2022/06/28 08:51:00;;;;;;;8.38;2.92;;;18.40;99.90;;;;;;4994931;28;20037;-84
2022/06/28 08:53:27;;;;;;;9.75;3.05;;;18.50;99.90;;;;;;4995626;28;20049;-84
2022/06/28 08:55:54;;;;;;;11.60;3.40;;;18.60;99.90;;;;;;5011971;28;20042;-84
2022/06/28 08:58:20;;;;;;;11.43;4.07;;;18.70;99.90;;;;;;5012365;28;20087;-83
2022/06/28 09:00:47;;;;;;;11.25;3.40;;;18.60;99.90;;;;;;4995592;28;20068;-83
2022/06/28 09:03:12;;;;;;;10.32;2.95;;;18.70;99.90;;;;;;5011461;28;20041;-84
2022/06/28 09:05:38;;;;;;;9.88;2.45;;;18.60;99.90;;;;;;5010972;28;20084;-84
2022/06/28 09:08:04;;;;;;;9.93;2.67;;;18.70;99.90;;;;;;5011853;28;20037;-83
2022/06/28 09:10:29;;;;;;;10.93;3.40;;;18.80;99.90;;;;;;5011300;28;20041;-84
2022/06/28 09:13:13;;;;;;;10.93;3.47;;;18.80;99.90;;;;;;4997047;28;20107;-83
2022/06/28 09:15:58;;;;;;;9.32;2.53;;;18.80;99.90;;;;;;4998617;28;20045;-84
2022/06/28 09:18:36;;;;;;;9.25;2.45;;;18.80;99.90;;;;;;5033398;28;20041;-84
2022/06/28 09:21:08;;;;;;;9.75;2.67;;;18.80;99.90;;;;;;5014825;28;20044;-84
2022/06/28 09:23:36;;;;;;;11.95;3.13;;;18.80;99.90;;;;;;4999032;28;20083;-84
2022/06/28 09:26:09;;;;;;;9.07;2.28;;;19.00;99.90;;;;;;5015800;28;20064;-83
2022/06/28 09:28:40;;;;;;;8.73;2.60;;;19.10;99.90;;;;;;5016167;28;20044;-84
2022/06/28 09:31:20;;;;;;;9.43;2.30;;;19.10;99.90;;;;;;5014904;28;20108;-84
2022/06/28 09:34:02;;;;;;;8.20;2.72;;;19.20;99.90;;;;;;5041201;28;20041;-84
2022/06/28 09:36:29;;;;;;;8.70;2.40;;;19.30;99.90;;;;;;5015831;28;20122;-84
2022/06/28 09:38:56;;;;;;;7.72;2.08;;;19.20;99.90;;;;;;5015170;28;20049;-84
2022/06/28 09:41:27;;;;;;;7.80;2.10;;;19.30;99.90;;;;;;5014689;28;20068;-84
2022/06/28 09:44:07;;;;;;;7.13;2.15;;;19.40;99.90;;;;;;4998894;28;20045;-84
2022/06/28 09:46:33;;;;;;;9.77;2.50;;;19.50;99.90;;;;;;5016009;28;20060;-84
2022/06/28 09:49:01;;;;;;;7.60;1.85;;;19.50;99.90;;;;;;5000017;28;20033;-84
2022/06/28 09:51:29;;;;;;;8.18;1.90;;;19.50;99.80;;;;;;5010584;28;20044;-84
2022/06/28 09:53:58;;;;;;;8.95;2.80;;;19.50;99.90;;;;;;5014950;28;20430;-84
2022/06/28 09:56:26;;;;;;;9.05;2.90;;;19.60;99.90;;;;;;4998515;28;20084;-85
2022/06/28 09:58:53;;;;;;;8.90;3.10;;;19.60;99.90;;;;;;5015328;28;20045;-84
2022/06/28 10:01:20;;;;;;;6.68;2.55;;;19.60;99.90;;;;;;5014232;28;20046;-84
2022/06/28 10:03:48;;;;;;;8.93;2.30;;;19.70;99.90;;;;;;5013637;28;20038;-84
2022/06/28 10:06:16;;;;;;;8.43;1.95;;;19.70;99.90;;;;;;5014712;28;20034;-84
2022/06/28 10:08:42;;;;;;;6.72;1.85;;;19.80;99.90;;;;;;5014725;28;20160;-85
2022/06/28 10:11:10;;;;;;;8.07;2.05;;;19.80;99.90;;;;;;5014179;28;20049;-84
2022/06/28 10:16:38;;;;;;;8.68;1.70;;;19.90;99.90;;;;;;5028337;28;20071;-84
2022/06/28 10:19:05;;;;;;;8.63;2.08;;;20.00;99.60;;;;;;5031110;28;20037;-84
2022/06/28 10:21:52;;;;;;;7.65;2.30;;;20.10;99.90;;;;;;5027992;28;20113;-84
2022/06/28 10:24:18;;;;;;;8.10;2.20;;;20.20;99.80;;;;;;5022857;28;20034;-84
2022/06/28 10:26:46;;;;;;;9.00;2.13;;;20.30;99.90;;;;;;5028928;28;20076;-84
2022/06/28 10:29:13;;;;;;;8.52;1.88;;;20.40;99.90;;;;;;4997486;28;20037;-84
2022/06/28 10:31:42;;;;;;;8.45;1.77;;;20.40;99.90;;;;;;5013736;28;20131;-84
2022/06/28 10:34:12;;;;;;;7.63;2.25;;;20.40;96.20;;;;;;5014984;28;20128;-84
2022/06/28 10:36:44;;;;;;;10.70;2.58;;;20.40;99.00;;;;;;4997565;28;20037;-84
2022/06/28 10:39:13;;;;;;;9.93;2.25;;;20.50;99.90;;;;;;5014434;28;20095;-84
2022/06/28 10:41:44;;;;;;;7.60;2.28;;;20.60;99.90;;;;;;5013640;28;20043;-84
2022/06/28 10:44:16;;;;;;;9.43;2.00;;;20.60;99.90;;;;;;5014002;28;20064;-84
2022/06/28 10:46:48;;;;;;;5.47;1.73;;;20.60;97.80;;;;;;5031595;28;20099;-84
2022/06/28 10:49:14;;;;;;;7.40;2.00;;;20.60;99.10;;;;;;5014339;28;20033;-84
2022/06/28 10:52:08;;;;;;;8.00;2.17;;;20.60;96.50;;;;;;5030330;28;20116;-84
2022/06/28 10:54:34;;;;;;;7.68;1.90;;;20.80;97.70;;;;;;4990072;28;20086;-84
2022/06/28 10:57:00;;;;;;;6.47;1.70;;;20.90;99.20;;;;;;5012891;28;20072;-84
2022/06/28 10:59:37;;;;;;;7.90;2.05;;;21.00;97.60;;;;;;5031618;28;20110;-84
2022/06/28 11:02:03;;;;;;;6.35;1.83;;;21.00;92.60;;;;;;5013945;28;20072;-85
2022/06/28 11:04:30;;;;;;;7.60;1.90;;;21.10;92.40;;;;;;5013168;28;20380;-84
2022/06/28 11:07:06;;;;;;;7.38;1.80;;;21.10;93.10;;;;;;5013904;28;20043;-85
2022/06/28 11:09:47;;;;;;;6.72;1.73;;;21.20;95.90;;;;;;5013030;28;20045;-85
2022/06/28 11:12:37;;;;;;;7.00;1.92;;;21.20;92.20;;;;;;5012578;28;20766;-84
2022/06/28 11:15:11;;;;;;;9.70;2.10;;;21.20;90.30;;;;;;5030705;28;20056;-84
2022/06/28 11:17:41;;;;;;;8.13;2.00;;;21.10;91.30;;;;;;5011931;28;20056;-84
2022/06/28 11:20:14;;;;;;;7.78;2.30;;;20.90;94.10;;;;;;5013681;28;20701;-84
2022/06/28 11:22:41;;;;;;;;;;;20.90;97.30;;;;;;4995880;28;20095;-84
2022/06/28 11:25:15;;;;;;;7.07;1.88;;;21.00;94.40;;;;;;4996015;28;19917;-84
2022/06/28 11:27:48;;;;;;;11.00;2.10;;;21.00;91.20;;;;;;5013380;28;20087;-84
2022/06/28 11:30:15;;;;;;;8.05;1.88;;;21.10;90.00;;;;;;4996664;28;20041;-84
2022/06/28 11:32:48;;;;;;;6.75;1.73;;;21.20;93.20;;;;;;5013048;28;20037;-85
2022/06/28 11:35:23;;;;;;;8.15;1.92;;;21.20;95.60;;;;;;5019028;28;20040;-84
2022/06/28 11:37:55;;;;;;;8.27;1.90;;;21.20;92.00;;;;;;5031655;28;20513;-84
2022/06/28 11:40:42;;;;;;;7.28;1.60;;;21.30;92.50;;;;;;4996741;28;20083;-84
2022/06/28 11:43:09;;;;;;;6.78;1.92;;;21.40;91.90;;;;;;5012339;28;20041;-84
2022/06/28 11:45:48;;;;;;;5.97;1.58;;;21.50;91.20;;;;;;5012781;28;20037;-85
2022/06/28 11:48:16;;;;;;;7.68;1.90;;;21.60;84.60;;;;;;5013751;28;20569;-84
2022/06/28 11:50:43;;;;;;;7.03;1.60;;;21.50;90.00;;;;;;5012809;28;20049;-84
2022/06/28 11:53:11;;;;;;;7.18;1.70;;;21.60;90.50;;;;;;4995591;28;20531;-85
2022/06/28 11:55:45;;;;;;;10.30;1.73;;;21.60;86.40;;;;;;5013512;28;20037;-85
2022/06/28 11:58:16;;;;;;;7.35;1.75;;;21.70;86.30;;;;;;4996444;28;20040;-85
2022/06/28 12:01:08;;;;;;;6.82;1.60;;;21.80;78.30;;;;;;5012711;28;20446;-85
2022/06/28 12:03:53;;;;;;;7.87;1.63;;;21.70;75.40;;;;;;4995491;28;20406;-85
2022/06/28 12:06:30;;;;;;;7.55;1.58;;;21.80;77.40;;;;;;5012693;28;20046;-85
2022/06/28 12:08:59;;;;;;;6.43;1.85;;;21.90;84.10;;;;;;5013704;28;20119;-85
2022/06/28 12:11:35;;;;;;;7.05;1.73;;;22.00;85.40;;;;;;4995413;28;20041;-85
2022/06/28 12:14:14;;;;;;;8.35;1.88;;;22.20;84.10;;;;;;5028757;28;20041;-85
2022/06/28 12:16:45;;;;;;;7.90;1.80;;;22.20;78.30;;;;;;4995632;28;20033;-85
2022/06/28 12:19:17;;;;;;;7.00;1.52;;;22.20;85.50;;;;;;4997067;28;20152;-85
2022/06/28 12:22:04;;;;;;;6.03;1.60;;;22.30;86.20;;;;;;4995231;28;20038;-85
2022/06/28 12:24:46;;;;;;;7.22;1.90;;;22.40;92.10;;;;;;5012540;28;20057;-85
2022/06/28 12:27:14;;;;;;;7.32;1.70;;;22.60;82.50;;;;;;5012671;28;20048;-85
2022/06/28 12:29:40;;;;;;;7.30;1.55;;;22.70;83.10;;;;;;5028395;28;20034;-85
2022/06/28 12:32:07;;;;;;;8.25;1.33;;;22.70;72.60;;;;;;5012485;28;20495;-85
2022/06/28 12:34:32;;;;;;;6.85;1.60;;;22.70;74.70;;;;;;4994457;28;20070;-85
2022/06/28 12:36:58;;;;;;;7.90;1.40;;;22.80;75.90;;;;;;5029144;28;20077;-85
2022/06/28 12:39:24;;;;;;;5.53;1.40;;;22.90;86.50;;;;;;5010262;28;20041;-84
2022/06/28 12:41:50;;;;;;;8.18;1.67;;;22.90;75.60;;;;;;4993098;28;20038;-85
2022/06/28 12:44:16;;;;;;;9.82;1.90;;;22.90;72.40;;;;;;4994659;28;20116;-85
2022/06/28 12:46:43;;;;;;;6.53;1.48;;;22.80;70.10;;;;;;5013125;28;20122;-85
2022/06/28 12:49:08;;;;;;;6.43;1.70;;;22.90;71.80;;;;;;5006729;28;20069;-85
2022/06/28 12:51:34;;;;;;;6.03;1.48;;;22.90;68.50;;;;;;5027971;28;20068;-84